createdAt,value
2023-05-14T00:01:49.917Z,82.32
2023-05-14T00:04:53.232Z,82.06
2023-05-14T00:07:55.722Z,81.59
2023-05-14T00:10:59.058Z,81.80
2023-05-14T00:14:01.581Z,82.00
2023-05-14T00:17:04.553Z,82.04
2023-05-14T00:20:07.529Z,81.72
2023-05-14T00:23:10.720Z,81.37
2023-05-14T00:26:13.259Z,81.81
2023-05-14T00:29:16.694Z,81.63
2023-05-14T00:32:19.310Z,81.43
2023-05-14T00:35:22.214Z,81.58
2023-05-14T00:38:27.671Z,82.23
2023-05-14T00:41:30.447Z,81.82
2023-05-14T00:44:32.929Z,82.21
2023-05-14T00:47:36.515Z,82.61
2023-05-14T00:50:39.210Z,81.90
2023-05-14T00:53:42.665Z,81.86
2023-05-14T00:56:46.235Z,81.87
2023-05-14T00:59:49.236Z,81.94
2023-05-14T01:02:51.931Z,82.35
2023-05-14T01:06:13.604Z,81.89
2023-05-14T01:09:27.081Z,81.98
2023-05-14T01:13:00.397Z,82.01
2023-05-14T01:16:04.461Z,82.31
2023-05-14T01:19:13.980Z,83.19
2023-05-14T01:22:16.459Z,82.97
2023-05-14T01:25:19.237Z,82.68
2023-05-14T01:28:30.047Z,82.98
2023-05-14T01:31:35.184Z,83.31
2023-05-14T01:34:38.009Z,83.63
2023-05-14T01:37:41.964Z,83.56
2023-05-14T01:40:46.295Z,83.67
2023-05-14T01:43:49.491Z,83.51
2023-05-14T01:46:52.025Z,83.58
2023-05-14T01:49:54.842Z,82.95
2023-05-14T01:52:57.465Z,83.16
2023-05-14T01:56:00.369Z,83.21
2023-05-14T01:59:02.904Z,82.79
2023-05-14T02:02:05.786Z,82.31
2023-05-14T02:05:10.234Z,82.15
2023-05-14T02:08:12.814Z,82.47
2023-05-14T02:11:15.831Z,83.20
2023-05-14T02:14:18.574Z,82.72
2023-05-14T02:17:21.213Z,83.07
2023-05-14T02:20:24.521Z,82.80
2023-05-14T02:23:37.786Z,82.40
2023-05-14T02:26:43.624Z,82.73
2023-05-14T02:29:46.292Z,82.17
2023-05-14T02:32:49.804Z,82.43
2023-05-14T02:35:52.405Z,82.22
2023-05-14T02:38:55.399Z,82.59
2023-05-14T02:41:57.858Z,82.99
2023-05-14T02:45:01.087Z,82.97
2023-05-14T02:48:03.846Z,82.59
2023-05-14T02:51:07.705Z,82.84
2023-05-14T02:54:10.273Z,82.87
2023-05-14T02:57:13.562Z,83.05
2023-05-14T03:00:16.292Z,82.82
2023-05-14T03:03:19.875Z,83.09
2023-05-14T03:06:22.763Z,83.23
2023-05-14T03:09:25.586Z,82.54
2023-05-14T03:12:28.114Z,82.47
2023-05-14T03:15:31.250Z,82.09
2023-05-14T03:18:36.881Z,82.33
2023-05-14T03:21:39.848Z,82.06
2023-05-14T03:24:42.415Z,81.71
2023-05-14T03:27:46.274Z,81.67
2023-05-14T03:30:48.782Z,81.41
2023-05-14T03:33:51.866Z,81.83
2023-05-14T03:36:54.332Z,81.42
2023-05-14T03:39:57.156Z,81.88
2023-05-14T03:42:59.688Z,81.93
2023-05-14T03:46:02.528Z,82.14
2023-05-14T03:49:06.946Z,81.70
2023-05-14T03:52:10.411Z,81.37
2023-05-14T03:55:12.885Z,81.65
2023-05-14T03:58:15.869Z,81.56
2023-05-14T04:01:18.924Z,81.52
2023-05-14T04:04:21.764Z,81.46
2023-05-14T04:07:24.311Z,81.34
2023-05-14T04:10:29.083Z,81.20
2023-05-14T04:13:31.582Z,81.21
2023-05-14T04:16:34.515Z,81.20
2023-05-14T04:19:37.109Z,81.33
2023-05-14T04:22:40.069Z,81.69
2023-05-14T04:25:42.511Z,81.53
2023-05-14T04:28:45.734Z,80.89
2023-05-14T04:31:49.702Z,81.16
2023-05-14T04:34:52.497Z,80.76
2023-05-14T04:37:55.028Z,81.25
2023-05-14T04:40:58.384Z,81.39
2023-05-14T04:44:04.265Z,80.69
2023-05-14T04:47:07.616Z,80.88
2023-05-14T04:50:10.177Z,81.21
2023-05-14T04:53:12.966Z,81.00
2023-05-14T04:56:15.531Z,81.32
2023-05-14T04:59:18.302Z,81.03
2023-05-14T05:02:20.958Z,80.50
2023-05-14T05:05:23.845Z,80.23
2023-05-14T05:08:26.505Z,80.26
2023-05-14T05:11:29.445Z,80.37
2023-05-14T05:14:31.995Z,79.95
2023-05-14T05:17:34.867Z,80.03
2023-05-14T05:20:37.334Z,80.00
2023-05-14T05:23:40.325Z,79.88
2023-05-14T05:26:42.874Z,79.65
2023-05-14T05:29:46.251Z,80.07
2023-05-14T05:32:48.969Z,80.74
2023-05-14T05:35:52.495Z,79.94
2023-05-14T05:38:56.055Z,79.92
2023-05-14T05:41:58.813Z,80.39
2023-05-14T05:45:01.290Z,80.33
2023-05-14T05:48:04.314Z,79.83
2023-05-14T05:51:06.894Z,79.45
2023-05-14T05:54:09.717Z,79.40
2023-05-14T05:57:12.184Z,79.71
2023-05-14T06:00:15.549Z,79.91
2023-05-14T06:03:17.916Z,79.98
2023-05-14T06:06:21.761Z,79.78
2023-05-14T06:09:24.301Z,79.89
2023-05-14T06:12:27.296Z,79.58
2023-05-14T06:15:29.771Z,79.98
2023-05-14T06:18:32.605Z,79.42
2023-05-14T06:21:35.191Z,80.60
2023-05-14T06:24:38.020Z,80.71
2023-05-14T06:27:40.650Z,80.20
2023-05-14T06:30:43.528Z,80.37
2023-05-14T06:33:46.083Z,79.47
2023-05-14T06:36:49.104Z,79.40
2023-05-14T06:39:51.647Z,79.39
2023-05-14T06:42:54.487Z,79.84
2023-05-14T06:45:57.071Z,79.34
2023-05-14T06:48:59.921Z,79.10
2023-05-14T06:52:02.454Z,79.58
2023-05-14T06:55:05.495Z,79.60
2023-05-14T06:58:08.374Z,79.09
2023-05-14T07:01:11.224Z,79.45
2023-05-14T07:04:13.743Z,79.74
2023-05-14T07:07:20.563Z,79.26
2023-05-14T07:10:23.663Z,79.45
2023-05-14T07:13:28.815Z,78.94
2023-05-14T07:16:31.348Z,79.43
2023-05-14T07:19:34.179Z,79.18
2023-05-14T07:22:36.684Z,79.43
2023-05-14T07:25:39.422Z,79.41
2023-05-14T07:28:41.918Z,79.90
2023-05-14T07:31:44.790Z,79.39
2023-05-14T07:34:47.592Z,79.25
2023-05-14T07:37:51.485Z,79.07
2023-05-14T07:40:54.390Z,79.36
2023-05-14T07:43:57.248Z,78.71
2023-05-14T07:46:59.815Z,78.62
2023-05-14T07:50:03.507Z,79.66
2023-05-14T07:53:08.588Z,79.49
2023-05-14T07:56:11.523Z,78.78
2023-05-14T07:59:14.106Z,78.93
2023-05-14T08:02:17.560Z,79.58
2023-05-14T08:05:20.652Z,79.05
2023-05-14T08:08:23.252Z,79.29
2023-05-14T08:11:26.288Z,79.61
2023-05-14T08:14:28.943Z,79.39
2023-05-14T08:17:31.848Z,80.12
2023-05-14T08:20:34.364Z,79.34
2023-05-14T08:23:37.089Z,79.51
2023-05-14T08:26:39.590Z,79.43
2023-05-14T08:29:42.659Z,80.06
2023-05-14T08:32:45.187Z,79.76
2023-05-14T08:35:48.004Z,79.26
2023-05-14T08:38:50.818Z,80.10
2023-05-14T08:41:53.760Z,80.87
2023-05-14T08:45:04.471Z,80.97
2023-05-14T08:48:09.059Z,81.00
2023-05-14T08:51:11.989Z,80.44
2023-05-14T08:54:18.321Z,80.72
2023-05-14T08:57:21.539Z,82.16
2023-05-14T09:00:24.971Z,81.54
2023-05-14T09:03:27.814Z,81.96
2023-05-14T09:06:30.990Z,81.49
2023-05-14T09:09:33.656Z,81.77
2023-05-14T09:12:36.498Z,81.89
2023-05-14T09:15:41.338Z,81.08
2023-05-14T09:18:45.316Z,80.12
2023-05-14T09:21:49.482Z,80.92
2023-05-14T09:25:06.668Z,81.11
2023-05-14T09:28:09.433Z,81.20
2023-05-14T09:31:12.303Z,82.04
2023-05-14T09:34:27.455Z,81.30
2023-05-14T09:37:30.305Z,80.75
2023-05-14T09:40:32.810Z,80.79
2023-05-14T09:43:35.612Z,81.38
2023-05-14T09:46:38.058Z,81.58
2023-05-14T09:49:40.955Z,80.88
2023-05-14T09:52:43.473Z,80.77
2023-05-14T09:55:46.533Z,80.76
2023-05-14T09:58:49.724Z,80.83
2023-05-14T10:01:53.085Z,80.82
2023-05-14T10:04:58.936Z,81.15
2023-05-14T10:08:04.429Z,81.92
2023-05-14T10:11:15.550Z,81.93
2023-05-14T10:14:25.338Z,82.18
2023-05-14T10:17:31.759Z,82.70
2023-05-14T10:20:34.978Z,82.65
2023-05-14T10:23:38.198Z,83.94
2023-05-14T10:26:42.045Z,82.97
2023-05-14T10:29:53.875Z,83.05
2023-05-14T10:33:09.276Z,83.19
2023-05-14T10:36:12.190Z,84.22
2023-05-14T10:39:14.968Z,84.67
2023-05-14T10:42:27.211Z,85.79
2023-05-14T10:45:30.510Z,84.00
2023-05-14T10:48:33.932Z,82.90
2023-05-14T10:51:36.679Z,82.63
2023-05-14T10:54:39.610Z,83.19
2023-05-14T10:57:43.802Z,83.81
2023-05-14T11:00:48.654Z,83.53
2023-05-14T11:03:53.329Z,84.36
2023-05-14T11:06:56.643Z,84.55
2023-05-14T11:10:05.120Z,84.56
2023-05-14T11:13:08.463Z,83.85
2023-05-14T11:16:22.817Z,84.79
2023-05-14T11:19:26.478Z,86.49
2023-05-14T11:22:29.094Z,84.40
2023-05-14T11:25:32.082Z,84.50
2023-05-14T11:28:34.656Z,83.31
2023-05-14T11:31:37.589Z,83.90
2023-05-14T11:34:40.840Z,83.61
2023-05-14T11:37:44.314Z,83.95
2023-05-14T11:40:57.437Z,83.24
2023-05-14T11:44:00.335Z,83.11
2023-05-14T11:47:04.991Z,82.79
2023-05-14T11:50:09.579Z,83.12
2023-05-14T11:53:17.162Z,83.82
2023-05-14T11:56:22.549Z,83.67
2023-05-14T11:59:29.177Z,84.16
2023-05-14T12:02:32.117Z,83.71
2023-05-14T12:05:38.325Z,84.28
2023-05-14T12:08:40.854Z,83.28
2023-05-14T12:11:45.191Z,84.39
2023-05-14T12:14:48.882Z,84.83
2023-05-14T12:17:51.949Z,86.14
2023-05-14T12:20:54.886Z,86.40
2023-05-14T12:24:01.003Z,86.91
2023-05-14T12:27:03.707Z,87.71
2023-05-14T12:30:20.623Z,88.29
2023-05-14T12:33:24.387Z,88.68
2023-05-14T12:36:27.170Z,89.60
2023-05-14T12:39:32.424Z,90.41
2023-05-14T12:42:35.445Z,89.50
2023-05-14T12:45:37.969Z,90.00
2023-05-14T12:48:40.825Z,91.18
2023-05-14T12:51:43.447Z,90.64
2023-05-14T12:54:46.255Z,90.52
2023-05-14T12:57:48.915Z,91.24
2023-05-14T13:00:51.808Z,91.53
2023-05-14T13:03:55.463Z,91.83
2023-05-14T13:06:58.389Z,92.29
2023-05-14T13:10:00.973Z,93.46
2023-05-14T13:13:03.889Z,93.11
2023-05-14T13:16:06.649Z,93.99
2023-05-14T13:19:09.750Z,94.29
2023-05-14T13:22:12.424Z,94.66
2023-05-14T13:25:15.425Z,95.93
2023-05-14T13:28:18.058Z,95.17
2023-05-14T13:31:20.906Z,95.28
2023-05-14T13:34:23.519Z,95.47
2023-05-14T13:37:26.430Z,96.33
2023-05-14T13:40:29.000Z,95.43
2023-05-14T13:43:32.704Z,95.38
2023-05-14T13:46:35.397Z,95.29
2023-05-14T13:49:38.157Z,96.10
2023-05-14T13:52:40.948Z,97.36
2023-05-14T13:55:45.028Z,97.18
2023-05-14T13:58:49.279Z,97.98
2023-05-14T14:01:54.649Z,97.87
2023-05-14T14:04:57.551Z,98.19
2023-05-14T14:08:07.957Z,98.66
2023-05-14T14:11:23.085Z,98.29
2023-05-14T14:14:25.716Z,99.35
2023-05-14T14:17:28.480Z,99.22
2023-05-14T14:20:31.911Z,98.92
2023-05-14T14:23:34.848Z,98.21
2023-05-14T14:26:37.349Z,98.12
2023-05-14T14:29:40.208Z,98.65
2023-05-14T14:32:46.956Z,98.98
2023-05-14T14:35:49.817Z,98.78
2023-05-14T14:38:52.398Z,98.85
2023-05-14T14:42:36.118Z,98.84
2023-05-14T14:45:38.832Z,99.89
2023-05-14T14:48:41.879Z,99.79
2023-05-14T14:51:44.560Z,99.35
2023-05-14T14:54:47.469Z,99.36
2023-05-14T14:57:52.741Z,98.55
2023-05-14T15:00:57.071Z,98.44
2023-05-14T15:03:59.667Z,98.72
2023-05-14T15:07:02.616Z,98.90
2023-05-14T15:10:05.882Z,98.65
2023-05-14T15:13:09.028Z,99.76
2023-05-14T15:16:12.515Z,99.76
2023-05-14T15:19:15.608Z,99.13
2023-05-14T15:22:18.914Z,99.17
2023-05-14T15:25:23.821Z,99.40
2023-05-14T15:28:26.961Z,99.10
2023-05-14T15:31:30.242Z,99.61
2023-05-14T15:34:33.143Z,100.00
2023-05-14T15:37:38.119Z,99.93
2023-05-14T15:40:40.799Z,100.00
2023-05-14T15:43:44.580Z,100.00
2023-05-14T15:46:47.667Z,100.00
2023-05-14T15:49:50.576Z,100.00
2023-05-14T15:52:53.797Z,100.00
2023-05-14T15:55:57.000Z,100.00
2023-05-14T15:58:59.857Z,100.00
2023-05-14T16:02:02.875Z,100.00
2023-05-14T16:05:07.337Z,100.00
2023-05-14T16:08:10.277Z,100.00
2023-05-14T16:11:13.433Z,100.00
2023-05-14T16:14:16.148Z,100.00
2023-05-14T16:17:19.379Z,100.00
2023-05-14T16:20:23.247Z,100.00
2023-05-14T16:23:27.333Z,100.00
2023-05-14T16:26:37.928Z,100.00
2023-05-14T16:29:40.966Z,100.00
2023-05-14T16:32:43.726Z,100.00
2023-05-14T16:35:47.067Z,100.00
2023-05-14T16:39:06.748Z,100.00
2023-05-14T16:42:11.776Z,100.00
2023-05-14T16:45:15.410Z,100.00
2023-05-14T16:48:18.574Z,100.00
2023-05-14T16:51:21.476Z,100.00
2023-05-14T16:54:24.767Z,100.00
2023-05-14T16:57:36.455Z,100.00
2023-05-14T17:00:39.778Z,100.00
2023-05-14T17:03:44.840Z,100.00
2023-05-14T17:06:48.343Z,100.00
2023-05-14T17:09:51.660Z,100.00
2023-05-14T17:12:55.077Z,100.00
2023-05-14T17:15:58.198Z,100.00
2023-05-14T17:19:04.582Z,100.00
2023-05-14T17:22:10.038Z,100.00
2023-05-14T17:25:13.802Z,100.00
2023-05-14T17:28:17.217Z,100.00
2023-05-14T17:31:22.015Z,100.00
2023-05-14T17:34:27.919Z,100.00
2023-05-14T17:37:33.977Z,100.00
2023-05-14T17:40:36.785Z,100.00
2023-05-14T17:43:42.859Z,100.00
2023-05-14T17:46:46.227Z,100.00
2023-05-14T17:49:51.082Z,100.00
2023-05-14T17:53:00.323Z,100.00
2023-05-14T17:56:14.342Z,100.00
2023-05-14T17:59:17.952Z,100.00
2023-05-14T18:02:22.349Z,100.00
2023-05-14T18:05:31.884Z,100.00
2023-05-14T18:08:38.199Z,100.00
2023-05-14T18:11:42.123Z,100.00
2023-05-14T18:14:48.207Z,100.00
2023-05-14T18:17:53.840Z,100.00
2023-05-14T18:20:56.790Z,100.00
2023-05-14T18:24:01.118Z,100.00
2023-05-14T18:27:04.159Z,100.00
2023-05-14T18:30:08.235Z,100.00
2023-05-14T18:33:11.552Z,100.00
2023-05-14T18:36:15.298Z,100.00
2023-05-14T18:39:18.890Z,100.00
2023-05-14T18:42:22.383Z,100.00
2023-05-14T18:45:25.485Z,100.00
2023-05-14T18:48:28.910Z,100.00
2023-05-14T18:51:34.425Z,100.00
2023-05-14T18:54:38.513Z,100.00
2023-05-14T18:57:41.034Z,100.00
2023-05-14T19:00:44.125Z,100.00
2023-05-14T19:03:47.235Z,100.00
2023-05-14T19:06:52.144Z,100.00
2023-05-14T19:09:55.485Z,100.00
2023-05-14T19:13:01.100Z,100.00
2023-05-14T19:16:04.167Z,100.00
2023-05-14T19:19:07.986Z,100.00
2023-05-14T19:22:10.670Z,100.00
2023-05-14T19:25:13.604Z,100.00
2023-05-14T19:28:16.072Z,100.00
2023-05-14T19:31:19.069Z,100.00
2023-05-14T19:34:21.920Z,100.00
2023-05-14T19:37:24.893Z,100.00
2023-05-14T19:40:28.656Z,100.00
2023-05-14T19:43:31.979Z,100.00
2023-05-14T19:46:34.799Z,100.00
2023-05-14T19:49:37.739Z,100.00
2023-05-14T19:52:40.604Z,100.00
2023-05-14T19:55:43.558Z,100.00
2023-05-14T19:58:46.434Z,100.00
2023-05-14T20:01:49.498Z,100.00
2023-05-14T20:04:55.449Z,100.00
2023-05-14T20:07:58.121Z,100.00
2023-05-14T20:11:01.028Z,100.00
2023-05-14T20:14:03.589Z,100.00
2023-05-14T20:17:06.506Z,100.00
2023-05-14T20:20:10.283Z,100.00
2023-05-14T20:23:13.249Z,100.00
2023-05-14T20:26:16.240Z,100.00
2023-05-14T20:29:18.966Z,100.00
2023-05-14T20:32:25.159Z,100.00
2023-05-14T20:35:28.064Z,100.00
2023-05-14T20:38:32.652Z,100.00
2023-05-14T20:41:35.493Z,100.00
2023-05-14T20:44:38.045Z,100.00
2023-05-14T20:47:40.896Z,100.00
2023-05-14T20:50:44.037Z,100.00
2023-05-14T20:53:46.881Z,100.00
2023-05-14T20:56:49.424Z,100.00
2023-05-14T20:59:52.362Z,100.00
2023-05-14T21:02:55.034Z,100.00
2023-05-14T21:05:57.966Z,100.00
2023-05-14T21:09:00.544Z,100.00
2023-05-14T21:12:03.423Z,100.00
2023-05-14T21:15:06.424Z,100.00
2023-05-14T21:18:09.195Z,100.00
2023-05-14T21:21:11.722Z,100.00
2023-05-14T21:24:16.772Z,100.00
2023-05-14T21:27:19.294Z,100.00
2023-05-14T21:30:22.149Z,100.00
2023-05-14T21:33:24.677Z,100.00
2023-05-14T21:36:27.576Z,100.00
2023-05-14T21:39:30.105Z,100.00
2023-05-14T21:42:32.861Z,100.00
2023-05-14T21:45:35.413Z,100.00
2023-05-14T21:48:38.239Z,100.00
2023-05-14T21:51:40.765Z,100.00
2023-05-14T21:54:43.648Z,100.00
2023-05-14T21:57:46.262Z,100.00
2023-05-14T22:00:49.072Z,100.00
2023-05-14T22:03:51.822Z,100.00
2023-05-14T22:06:54.386Z,100.00
2023-05-14T22:09:57.138Z,100.00
2023-05-14T22:12:59.583Z,100.00
2023-05-14T22:16:12.081Z,100.00
2023-05-14T22:19:16.438Z,100.00
2023-05-14T22:22:19.429Z,100.00
2023-05-14T22:25:21.904Z,100.00
2023-05-14T22:28:24.670Z,100.00
2023-05-14T22:31:27.183Z,100.00
2023-05-14T22:34:29.909Z,100.00
2023-05-14T22:37:32.406Z,100.00
2023-05-14T22:40:35.160Z,100.00
2023-05-14T22:43:38.016Z,100.00
2023-05-14T22:46:40.891Z,100.00
2023-05-14T22:49:43.717Z,100.00
2023-05-14T22:52:46.510Z,100.00
2023-05-14T22:55:48.983Z,100.00
2023-05-14T22:58:51.804Z,100.00
2023-05-14T23:01:54.348Z,100.00
2023-05-14T23:04:57.118Z,100.00
2023-05-14T23:07:59.618Z,100.00
2023-05-14T23:11:02.400Z,100.00
2023-05-14T23:14:04.859Z,100.00
2023-05-14T23:17:07.644Z,100.00
2023-05-14T23:20:13.540Z,100.00
2023-05-14T23:23:16.448Z,100.00
2023-05-14T23:26:19.046Z,100.00
2023-05-14T23:29:21.826Z,100.00
2023-05-14T23:32:24.432Z,100.00
2023-05-14T23:35:27.680Z,100.00
2023-05-14T23:38:30.199Z,100.00
2023-05-14T23:41:33.025Z,100.00
2023-05-14T23:44:35.628Z,100.00
2023-05-14T23:47:38.597Z,100.00
2023-05-14T23:50:41.073Z,100.00
2023-05-14T23:53:44.033Z,100.00
2023-05-14T23:56:46.496Z,100.00
2023-05-14T23:59:49.348Z,100.00
